Time;durP1;ratioP1;P1;durP2;ratioP2;P2;SDS_P1;SDS_P2;PMS_P1;PMS_P2;Temp;Humidity;BMP_temperature;BMP_pressure;BME280_temperature;BME280_humidity;BME280_pressure;Samples;Min_cycle;Max_cycle;Signal;HPM_P1;HPM_P2
2022/05/29 00:00:33;;;;;;;2.83;0.95;;;11.70;78.00;;;;;;4177878;28;20088;-75
2022/05/29 00:02:34;;;;;;;2.38;0.93;;;11.70;78.00;;;;;;4172507;28;20058;-75
2022/05/29 00:04:39;;;;;;;2.45;1.23;;;11.70;79.20;;;;;;4170758;28;20058;-75
2022/05/29 00:06:47;;;;;;;1.27;1.08;;;11.70;77.90;;;;;;4174867;28;20058;-75
2022/05/29 00:08:49;;;;;;;4.68;1.65;;;11.80;77.90;;;;;;4173342;28;20085;-76
2022/05/29 00:10:51;;;;;;;6.38;4.20;;;11.70;78.80;;;;;;4174044;28;20068;-76
2022/05/29 00:12:52;;;;;;;7.63;3.83;;;11.70;79.00;;;;;;4174142;28;20057;-77
2022/05/29 00:14:55;;;;;;;2.72;1.23;;;11.80;78.90;;;;;;4176015;28;20065;-77
2022/05/29 00:16:57;;;;;;;2.45;0.77;;;11.80;78.20;;;;;;4177147;28;21011;-76
2022/05/29 00:19:00;;;;;;;2.72;0.98;;;11.70;77.00;;;;;;4173643;28;20054;-76
2022/05/29 00:21:01;;;;;;;2.17;1.27;;;11.70;77.70;;;;;;4177361;28;20059;-76
2022/05/29 00:23:04;;;;;;;0.82;0.80;;;11.70;78.50;;;;;;4174516;28;20062;-77
2022/05/29 00:25:09;;;;;;;2.60;0.82;;;11.70;78.50;;;;;;4177477;28;20256;-77
2022/05/29 00:27:11;;;;;;;2.35;1.65;;;11.70;77.70;;;;;;4173000;28;20061;-77
2022/05/29 00:29:13;;;;;;;2.92;1.10;;;11.70;78.50;;;;;;4173192;28;20177;-77
2022/05/29 00:31:15;;;;;;;2.72;1.00;;;11.70;78.40;;;;;;4182612;28;20061;-77
2022/05/29 00:33:17;;;;;;;1.88;0.90;;;11.70;77.90;;;;;;4175308;28;20057;-77
2022/05/29 00:35:19;;;;;;;2.55;0.75;;;11.70;78.50;;;;;;4178310;28;20109;-77
2022/05/29 00:37:21;;;;;;;1.30;0.80;;;11.70;77.80;;;;;;4179286;28;20060;-77
2022/05/29 00:39:22;;;;;;;2.22;0.80;;;11.70;77.90;;;;;;4173656;28;20124;-77
2022/05/29 00:41:31;;;;;;;1.50;1.00;;;11.60;77.70;;;;;;4172082;28;20160;-77
2022/05/29 00:43:33;;;;;;;2.08;1.00;;;11.70;78.60;;;;;;4172755;28;20054;-76
2022/05/29 00:45:47;;;;;;;2.67;1.05;;;11.60;78.80;;;;;;4171405;28;20049;-77
2022/05/29 00:47:49;;;;;;;2.28;1.30;;;11.70;79.40;;;;;;4168475;28;20054;-76
2022/05/29 00:49:51;;;;;;;3.05;1.45;;;11.70;78.70;;;;;;4170319;28;20057;-77
2022/05/29 00:52:00;;;;;;;12.23;4.72;;;11.70;79.20;;;;;;4173180;28;20058;-77
2022/05/29 00:54:02;;;;;;;5.20;4.68;;;11.70;79.00;;;;;;4178272;28;20208;-77
2022/05/29 00:56:10;;;;;;;6.60;5.88;;;11.70;79.20;;;;;;4173064;28;20053;-77
2022/05/29 00:58:12;;;;;;;6.90;6.30;;;11.70;78.60;;;;;;4171906;28;20058;-77
2022/05/29 01:00:17;;;;;;;5.70;5.05;;;11.80;78.50;;;;;;4176750;28;20064;-77
2022/05/29 01:02:19;;;;;;;3.70;3.40;;;11.70;78.70;;;;;;4173781;28;20099;-77
2022/05/29 01:04:21;;;;;;;6.63;5.93;;;11.80;78.90;;;;;;4171257;28;20058;-77
2022/05/29 01:06:23;;;;;;;4.05;2.60;;;11.80;78.90;;;;;;4175424;28;20046;-77
2022/05/29 01:08:28;;;;;;;5.15;2.10;;;11.80;78.40;;;;;;4173154;28;20065;-77
2022/05/29 01:10:48;;;;;;;1.80;1.70;;;11.80;78.10;;;;;;4175963;28;21182;-77
2022/05/29 01:13:16;;;;;;;6.63;1.70;;;11.70;78.00;;;;;;4177223;28;20066;-77
2022/05/29 01:15:37;;;;;;;3.13;1.30;;;11.70;78.60;;;;;;4179544;28;20535;-76
2022/05/29 01:17:42;;;;;;;1.83;1.73;;;11.80;79.00;;;;;;4176250;28;20053;-77
2022/05/29 01:20:21;;;;;;;1.50;0.85;;;11.70;79.30;;;;;;4178790;28;20079;-77
2022/05/29 01:22:44;;;;;;;1.85;0.88;;;11.70;78.30;;;;;;4176648;28;20093;-76
2022/05/29 01:25:08;;;;;;;2.13;0.90;;;11.70;78.00;;;;;;4177904;28;20173;-76
2022/05/29 01:27:45;;;;;;;0.85;0.75;;;11.60;77.70;;;;;;4172614;28;20068;-76
2022/05/29 01:30:02;;;;;;;6.22;0.80;;;11.60;78.80;;;;;;4176669;28;20100;-76
2022/05/29 01:32:13;;;;;;;2.17;1.10;;;11.50;79.80;;;;;;4171030;28;20811;-77
2022/05/29 01:34:36;;;;;;;4.88;1.10;;;11.50;80.60;;;;;;4174355;28;20061;-77
2022/05/29 01:36:50;;;;;;;1.25;0.77;;;11.40;80.00;;;;;;4190446;28;20046;-77
2022/05/29 01:38:58;;;;;;;2.95;1.10;;;11.40;80.30;;;;;;4173745;28;20057;-77
2022/05/29 01:41:23;;;;;;;2.42;0.70;;;11.40;80.70;;;;;;4176688;28;20062;-77
2022/05/29 01:43:38;;;;;;;3.28;1.55;;;11.50;81.20;;;;;;4175103;28;20053;-77
2022/05/29 01:45:55;;;;;;;1.15;0.90;;;11.50;81.00;;;;;;4176227;28;20057;-76
2022/05/29 01:48:18;;;;;;;1.58;1.00;;;11.40;80.90;;;;;;4179790;28;20853;-76
2022/05/29 01:50:37;;;;;;;1.23;0.93;;;11.40;80.90;;;;;;4173386;28;20064;-76
2022/05/29 01:52:49;;;;;;;1.85;0.93;;;11.40;81.30;;;;;;4177353;28;20073;-76
2022/05/29 01:54:57;;;;;;;1.70;0.93;;;11.30;80.70;;;;;;4173022;28;20068;-77
2022/05/29 01:57:05;;;;;;;4.47;1.10;;;11.20;81.60;;;;;;4171235;28;20046;-77
2022/05/29 01:59:14;;;;;;;1.48;1.02;;;11.20;82.70;;;;;;4178475;28;20148;-77
2022/05/29 02:01:17;;;;;;;3.78;0.93;;;11.20;82.90;;;;;;4171628;28;20058;-77
2022/05/29 02:03:27;;;;;;;1.75;0.90;;;11.20;83.00;;;;;;4167588;28;20058;-77
2022/05/29 02:05:34;;;;;;;2.42;0.82;;;11.10;83.10;;;;;;4177002;28;21061;-77
2022/05/29 02:07:59;;;;;;;1.70;1.15;;;11.10;82.80;;;;;;4174828;28;20050;-77
2022/05/29 02:10:10;;;;;;;1.35;0.82;;;11.10;83.30;;;;;;4169309;28;20772;-77
2022/05/29 02:12:18;;;;;;;1.65;1.10;;;11.10;83.00;;;;;;4174865;28;20871;-76
2022/05/29 02:14:36;;;;;;;1.20;0.90;;;11.10;82.80;;;;;;4167208;28;20109;-76
2022/05/29 02:16:47;;;;;;;0.88;0.68;;;11.10;82.00;;;;;;4177016;28;20062;-77
2022/05/29 02:19:00;;;;;;;3.72;1.10;;;11.00;82.10;;;;;;4168099;28;20058;-77
2022/05/29 02:21:10;;;;;;;1.52;0.77;;;11.00;83.10;;;;;;4169462;28;20095;-76
2022/05/29 02:23:42;;;;;;;3.08;0.70;;;11.00;83.20;;;;;;4169145;28;20100;-77
2022/05/29 02:25:45;;;;;;;2.72;1.00;;;11.00;83.90;;;;;;4174783;28;20064;-77
2022/05/29 02:27:56;;;;;;;1.45;0.88;;;11.00;84.00;;;;;;4175676;28;20057;-77
2022/05/29 02:29:59;;;;;;;1.77;0.93;;;11.00;84.50;;;;;;4173446;28;20053;-76
2022/05/29 02:32:20;;;;;;;1.88;1.17;;;11.00;84.10;;;;;;4174534;28;20176;-77
2022/05/29 02:34:44;;;;;;;1.42;1.00;;;11.00;83.90;;;;;;4177864;28;20057;-75
2022/05/29 02:36:54;;;;;;;3.80;1.05;;;11.00;84.10;;;;;;4175809;28;20058;-75
2022/05/29 02:39:15;;;;;;;1.10;1.00;;;11.00;84.00;;;;;;4177061;28;20069;-75
2022/05/29 02:41:24;;;;;;;3.80;1.00;;;11.00;83.60;;;;;;4176505;28;20062;-75
2022/05/29 02:43:57;;;;;;;1.73;0.90;;;11.00;83.40;;;;;;4174720;28;20064;-75
2022/05/29 02:46:26;;;;;;;2.53;0.80;;;10.90;82.40;;;;;;4176444;28;21355;-75
2022/05/29 02:48:39;;;;;;;1.33;1.05;;;10.90;83.00;;;;;;4180516;28;20092;-75
2022/05/29 02:50:48;;;;;;;1.92;1.15;;;10.90;83.50;;;;;;4173963;28;20620;-75
2022/05/29 02:52:52;;;;;;;2.47;0.80;;;10.90;83.00;;;;;;4174597;28;20067;-75
2022/05/29 02:54:56;;;;;;;2.65;0.98;;;10.90;82.80;;;;;;4173907;28;20062;-75
2022/05/29 02:57:00;;;;;;;1.77;1.10;;;10.80;83.40;;;;;;4172305;28;20160;-76
2022/05/29 02:59:02;;;;;;;2.58;1.10;;;10.80;84.10;;;;;;4177133;28;20063;-76
2022/05/29 03:01:16;;;;;;;7.63;1.20;;;10.80;85.10;;;;;;4173396;28;20054;-76
2022/05/29 03:03:44;;;;;;;3.80;1.05;;;10.90;84.50;;;;;;4175231;28;20058;-76
2022/05/29 03:06:29;;;;;;;1.23;0.95;;;10.80;84.40;;;;;;4170064;28;20057;-76
2022/05/29 03:08:56;;;;;;;1.65;1.27;;;10.80;83.50;;;;;;4175196;28;20116;-76
2022/05/29 03:11:21;;;;;;;2.75;1.30;;;10.70;83.90;;;;;;4166494;28;20171;-76
2022/05/29 03:13:38;;;;;;;1.65;1.08;;;10.60;84.40;;;;;;4176377;28;20062;-76
2022/05/29 03:16:04;;;;;;;2.10;1.30;;;10.60;84.10;;;;;;4168937;28;20057;-76
2022/05/29 03:18:25;;;;;;;5.95;1.20;;;10.60;84.30;;;;;;4167395;28;20062;-76
2022/05/29 03:20:41;;;;;;;3.17;1.03;;;10.60;84.50;;;;;;4188072;28;20894;-76
2022/05/29 03:22:55;;;;;;;2.05;1.08;;;10.50;84.50;;;;;;4171250;28;20427;-76
2022/05/29 03:25:38;;;;;;;3.10;1.40;;;10.50;84.70;;;;;;4173319;28;20069;-76
2022/05/29 03:27:51;;;;;;;4.15;1.20;;;10.50;84.80;;;;;;4177313;28;20062;-76
2022/05/29 03:30:10;;;;;;;2.60;1.40;;;10.40;85.20;;;;;;4168556;28;20058;-75
2022/05/29 03:32:12;;;;;;;4.43;1.23;;;10.40;85.60;;;;;;4169573;28;20062;-76
2022/05/29 03:34:14;;;;;;;9.07;1.35;;;10.50;85.20;;;;;;4167770;28;20108;-76
2022/05/29 03:36:17;;;;;;;10.80;1.70;;;10.50;84.70;;;;;;4180860;28;20059;-76
2022/05/29 03:38:19;;;;;;;1.05;0.95;;;10.40;84.30;;;;;;4168382;28;20058;-76
2022/05/29 03:40:24;;;;;;;1.95;1.73;;;10.40;84.70;;;;;;4172563;28;20143;-76
2022/05/29 03:42:25;;;;;;;3.40;1.10;;;10.40;84.90;;;;;;4175987;28;20060;-76
2022/05/29 03:44:27;;;;;;;3.78;1.30;;;10.40;84.20;;;;;;4174910;28;20053;-76
2022/05/29 03:46:29;;;;;;;1.88;1.10;;;10.30;84.50;;;;;;4175913;28;20058;-76
2022/05/29 03:48:32;;;;;;;2.85;1.10;;;10.30;85.30;;;;;;4176896;28;20064;-76
2022/05/29 03:50:34;;;;;;;2.13;1.10;;;10.30;85.40;;;;;;4173618;28;20066;-76
2022/05/29 03:52:36;;;;;;;2.20;0.80;;;10.40;85.30;;;;;;4176361;28;20061;-75
2022/05/29 03:54:37;;;;;;;1.30;1.10;;;10.40;84.90;;;;;;4175104;28;20819;-76
2022/05/29 03:56:39;;;;;;;2.92;1.40;;;10.40;84.50;;;;;;4177410;28;20054;-76
2022/05/29 03:58:41;;;;;;;2.10;0.95;;;10.40;84.30;;;;;;4174249;28;20053;-77
2022/05/29 04:00:42;;;;;;;2.72;1.38;;;10.30;84.50;;;;;;4176625;28;20058;-77
2022/05/29 04:02:46;;;;;;;1.08;0.90;;;10.30;84.60;;;;;;4175652;28;20057;-76
2022/05/29 04:04:47;;;;;;;4.90;1.10;;;10.30;84.70;;;;;;4178196;28;20116;-77
2022/05/29 04:06:49;;;;;;;2.28;1.30;;;10.20;84.80;;;;;;4177417;28;20065;-76
2022/05/29 04:13:39;;;;;;;4.60;1.10;;;10.10;86.30;;;;;;4183486;28;20100;-76
2022/05/29 04:15:45;;;;;;;1.88;1.20;;;10.10;85.90;;;;;;4173330;28;20160;-77
2022/05/29 04:17:47;;;;;;;3.05;1.20;;;10.00;85.90;;;;;;4181591;28;20618;-76
2022/05/29 04:19:48;;;;;;;2.28;1.00;;;10.00;86.10;;;;;;4173285;28;20058;-77
2022/05/29 04:21:51;;;;;;;7.47;2.22;;;9.90;86.50;;;;;;4181106;28;20676;-76
2022/05/29 04:23:53;;;;;;;1.52;1.00;;;10.00;86.60;;;;;;4172542;28;20110;-77
2022/05/29 04:25:54;;;;;;;3.25;1.05;;;10.00;86.00;;;;;;4176188;28;21037;-76
2022/05/29 04:27:56;;;;;;;2.03;1.10;;;10.00;86.30;;;;;;4174797;28;20069;-76
2022/05/29 04:29:58;;;;;;;4.70;1.40;;;9.90;86.60;;;;;;4179281;28;20161;-77
2022/05/29 04:34:20;;;;;;;3.25;1.30;;;10.10;86.50;;;;;;4172713;28;20787;-76
2022/05/29 04:36:21;;;;;;;3.65;1.88;;;10.10;86.10;;;;;;4173202;28;21093;-76
2022/05/29 04:38:24;;;;;;;3.72;1.65;;;10.10;86.10;;;;;;4173190;28;20857;-76
2022/05/29 04:40:26;;;;;;;1.27;1.10;;;10.10;86.10;;;;;;4174987;28;20824;-76
2022/05/29 04:42:27;;;;;;;2.95;0.98;;;10.10;86.20;;;;;;4181230;28;20076;-76
2022/05/29 04:44:30;;;;;;;5.85;1.40;;;10.10;85.90;;;;;;4175407;28;20148;-76
2022/05/29 04:46:32;;;;;;;2.03;1.20;;;10.10;86.40;;;;;;4169618;28;20061;-76
2022/05/29 04:48:34;;;;;;;4.30;1.02;;;10.20;85.60;;;;;;4172860;28;20845;-76
2022/05/29 04:50:36;;;;;;;3.08;1.33;;;10.30;84.90;;;;;;4179620;28;20068;-76
2022/05/29 04:52:38;;;;;;;2.13;1.63;;;10.30;85.00;;;;;;4178879;28;20065;-76
2022/05/29 04:54:40;;;;;;;1.95;1.10;;;10.20;85.80;;;;;;4179586;28;20068;-77
2022/05/29 04:56:42;;;;;;;1.40;1.23;;;10.20;85.40;;;;;;4180201;28;20785;-76
2022/05/29 04:58:43;;;;;;;8.90;1.35;;;10.20;85.50;;;;;;4183391;28;20049;-76
2022/05/29 05:00:45;;;;;;;3.05;1.40;;;10.00;86.20;;;;;;4181338;28;20058;-76
2022/05/29 05:02:47;;;;;;;3.20;2.08;;;10.10;87.00;;;;;;4175403;28;20058;-77
2022/05/29 05:04:49;;;;;;;2.28;1.13;;;10.00;87.10;;;;;;4175449;28;20060;-76
2022/05/29 05:06:54;;;;;;;2.20;1.10;;;10.10;86.80;;;;;;4174569;28;20068;-76
2022/05/29 05:08:56;;;;;;;1.30;1.20;;;10.20;86.00;;;;;;4175268;28;20068;-77
2022/05/29 05:10:57;;;;;;;5.03;1.30;;;10.20;86.10;;;;;;4176680;28;21437;-76
2022/05/29 05:12:59;;;;;;;2.88;1.25;;;10.20;85.60;;;;;;4176165;28;20057;-77
2022/05/29 05:15:09;;;;;;;3.42;1.30;;;10.30;85.80;;;;;;4174531;28;20116;-77
2022/05/29 05:17:11;;;;;;;2.63;1.20;;;10.40;85.10;;;;;;4174184;28;20064;-75
2022/05/29 05:19:13;;;;;;;1.10;0.98;;;10.40;85.10;;;;;;4174432;28;20061;-75
2022/05/29 05:21:15;;;;;;;5.85;1.63;;;10.50;84.50;;;;;;4178261;28;20783;-76
2022/05/29 05:23:17;;;;;;;1.90;1.08;;;10.40;85.10;;;;;;4180645;28;20062;-76
2022/05/29 05:25:19;;;;;;;6.25;1.42;;;10.50;85.50;;;;;;4182751;28;20677;-76
2022/05/29 05:27:21;;;;;;;1.98;1.30;;;10.70;84.60;;;;;;4181384;28;20715;-76
2022/05/29 05:29:22;;;;;;;1.80;1.17;;;10.80;83.80;;;;;;4180611;28;20830;-76
2022/05/29 05:31:27;;;;;;;8.93;1.52;;;11.00;83.20;;;;;;4181537;28;20057;-76
2022/05/29 05:33:29;;;;;;;5.40;1.17;;;11.20;83.00;;;;;;4184102;28;20057;-78
2022/05/29 05:35:30;;;;;;;3.45;1.50;;;11.50;82.00;;;;;;4180585;28;20848;-77
2022/05/29 05:37:35;;;;;;;5.72;1.60;;;11.70;81.40;;;;;;4180752;28;20068;-77
2022/05/29 05:39:37;;;;;;;5.80;1.20;;;11.80;80.30;;;;;;4179525;28;20089;-77
2022/05/29 05:41:39;;;;;;;3.03;1.20;;;12.00;79.10;;;;;;4179192;28;20177;-77
2022/05/29 05:43:41;;;;;;;4.50;1.38;;;12.00;79.60;;;;;;4178957;28;20361;-77
2022/05/29 05:45:42;;;;;;;2.05;1.20;;;12.20;79.50;;;;;;4175573;28;20045;-77
2022/05/29 05:47:44;;;;;;;3.10;1.40;;;12.20;80.00;;;;;;4174665;28;20068;-77
2022/05/29 05:49:46;;;;;;;2.88;0.98;;;12.00;80.10;;;;;;4172589;28;20068;-77
2022/05/29 05:51:48;;;;;;;4.45;1.67;;;11.80;81.10;;;;;;4167730;28;20068;-77
2022/05/29 05:53:50;;;;;;;3.83;1.23;;;11.60;81.80;;;;;;4167009;28;20064;-78
2022/05/29 05:55:52;;;;;;;2.28;1.10;;;11.50;81.70;;;;;;4170678;28;20766;-77
2022/05/29 05:57:54;;;;;;;2.17;1.17;;;11.50;82.70;;;;;;4177551;28;20115;-77
2022/05/29 05:59:56;;;;;;;8.57;1.67;;;11.40;81.80;;;;;;4169849;28;20061;-76
2022/05/29 06:01:58;;;;;;;2.83;1.23;;;11.40;81.40;;;;;;4166142;28;20060;-77
2022/05/29 06:04:00;;;;;;;3.15;1.10;;;11.20;82.40;;;;;;4182608;28;20057;-77
2022/05/29 06:06:02;;;;;;;4.68;1.15;;;11.20;83.00;;;;;;4171922;28;20100;-75
2022/05/29 06:08:04;;;;;;;0.95;0.73;;;11.10;83.60;;;;;;4175791;28;20161;-76
2022/05/29 06:10:06;;;;;;;4.90;0.80;;;10.90;83.10;;;;;;4171150;28;20050;-75
2022/05/29 06:12:09;;;;;;;6.82;1.92;;;10.80;84.30;;;;;;4170013;28;20136;-76
2022/05/29 06:14:11;;;;;;;2.75;1.08;;;10.80;84.90;;;;;;4178144;28;20061;-75
2022/05/29 06:16:13;;;;;;;1.85;1.20;;;10.70;84.90;;;;;;4176221;28;20065;-76
2022/05/29 06:18:16;;;;;;;5.65;1.42;;;10.80;84.90;;;;;;4172520;28;20057;-75
2022/05/29 06:20:18;;;;;;;2.35;1.17;;;10.90;84.90;;;;;;4173371;28;20054;-77
2022/05/29 06:22:21;;;;;;;3.53;1.45;;;11.00;85.50;;;;;;4173447;28;20056;-76
2022/05/29 06:24:22;;;;;;;4.10;1.10;;;11.20;83.70;;;;;;4175259;28;20057;-76
2022/05/29 06:26:24;;;;;;;3.80;1.65;;;11.60;82.30;;;;;;4175592;28;20053;-75
2022/05/29 06:28:26;;;;;;;1.77;1.17;;;11.80;80.60;;;;;;4169782;28;20181;-75
2022/05/29 06:30:28;;;;;;;2.60;1.33;;;11.90;80.00;;;;;;4175748;28;20058;-76
2022/05/29 06:32:30;;;;;;;2.58;1.15;;;12.10;79.50;;;;;;4172278;28;20119;-76
2022/05/29 06:34:33;;;;;;;2.05;1.42;;;12.20;78.40;;;;;;4173361;28;20216;-75
2022/05/29 06:36:34;;;;;;;2.78;1.17;;;12.30;78.10;;;;;;4176604;28;20092;-75
2022/05/29 06:38:36;;;;;;;4.00;1.08;;;12.10;77.60;;;;;;4173722;28;20180;-75
2022/05/29 06:40:45;;;;;;;2.55;1.30;;;11.80;78.70;;;;;;4176116;28;20080;-76
2022/05/29 06:42:47;;;;;;;1.58;0.90;;;11.40;80.40;;;;;;4177849;28;20064;-75
2022/05/29 06:44:49;;;;;;;2.92;1.77;;;11.40;81.70;;;;;;4180640;28;20060;-76
2022/05/29 06:46:51;;;;;;;3.40;1.40;;;11.40;81.10;;;;;;4176700;28;20167;-75
2022/05/29 06:48:53;;;;;;;6.57;1.40;;;11.50;80.90;;;;;;4176635;28;20955;-76
2022/05/29 06:50:55;;;;;;;2.33;1.27;;;11.50;80.90;;;;;;4176796;28;20805;-76
2022/05/29 06:52:57;;;;;;;4.70;2.15;;;11.40;81.10;;;;;;4176483;28;20058;-77
2022/05/29 06:55:00;;;;;;;2.10;1.02;;;11.50;81.20;;;;;;4177886;28;20067;-77
2022/05/29 06:57:04;;;;;;;3.92;1.23;;;11.70;81.70;;;;;;4179815;28;20750;-76
2022/05/29 06:59:06;;;;;;;5.20;1.52;;;11.90;80.70;;;;;;4177117;28;20065;-76
2022/05/29 07:08:21;;;;;;;2.47;1.03;;;11.50;81.10;;;;;;4177460;28;20053;-76
2022/05/29 07:10:22;;;;;;;3.25;1.38;;;11.60;81.80;;;;;;4175078;28;20405;-76
2022/05/29 07:12:30;;;;;;;1.85;1.20;;;11.90;81.80;;;;;;4173485;28;20122;-76
2022/05/29 07:14:36;;;;;;;3.30;1.83;;;12.30;79.30;;;;;;4180117;28;20061;-76
2022/05/29 07:16:38;;;;;;;3.97;1.00;;;12.40;79.60;;;;;;4177228;28;20057;-75
2022/05/29 07:18:40;;;;;;;2.65;1.08;;;12.50;78.00;;;;;;4175927;28;20061;-77
2022/05/29 07:20:41;;;;;;;3.97;1.38;;;12.30;78.70;;;;;;4179207;28;20073;-77
2022/05/29 07:22:43;;;;;;;3.40;1.00;;;12.10;77.70;;;;;;4176036;28;20057;-76
2022/05/29 07:24:45;;;;;;;1.42;1.17;;;11.90;79.30;;;;;;4176492;28;20049;-76
2022/05/29 07:26:47;;;;;;;2.10;1.40;;;11.80;79.80;;;;;;4171241;28;20090;-76
2022/05/29 07:28:49;;;;;;;2.92;1.30;;;11.80;79.80;;;;;;4170692;28;20292;-76
2022/05/29 07:30:52;;;;;;;2.38;0.93;;;11.70;80.00;;;;;;4173619;28;20077;-77
2022/05/29 07:33:03;;;;;;;3.58;1.33;;;11.80;80.30;;;;;;4173442;28;20057;-77
2022/05/29 07:35:05;;;;;;;4.20;1.13;;;12.10;80.50;;;;;;4178550;28;20063;-77
2022/05/29 07:37:10;;;;;;;4.25;1.05;;;12.30;78.20;;;;;;4180989;28;20064;-77
2022/05/29 07:39:12;;;;;;;3.03;0.90;;;12.70;78.20;;;;;;4175631;28;20092;-77
2022/05/29 07:43:34;;;;;;;3.47;1.33;;;13.40;73.50;;;;;;4177497;28;20058;-77
2022/05/29 07:45:37;;;;;;;3.30;1.10;;;13.60;73.00;;;;;;4176254;28;20068;-75
2022/05/29 07:47:42;;;;;;;1.20;1.10;;;13.60;72.90;;;;;;4176274;28;20054;-77
2022/05/29 07:49:43;;;;;;;1.65;1.15;;;13.40;73.50;;;;;;4180402;28;20060;-76
2022/05/29 07:51:45;;;;;;;4.68;1.33;;;13.10;75.20;;;;;;4173628;28;20068;-76
2022/05/29 07:53:46;;;;;;;1.85;1.10;;;13.10;76.00;;;;;;4174192;28;20065;-76
2022/05/29 07:55:48;;;;;;;1.42;0.93;;;13.20;74.80;;;;;;4177822;28;20061;-76
2022/05/29 07:57:50;;;;;;;3.03;1.35;;;13.20;74.70;;;;;;4176204;28;20160;-75
2022/05/29 07:59:52;;;;;;;2.35;0.93;;;13.00;74.50;;;;;;4178453;28;20072;-76
2022/05/29 08:01:54;;;;;;;5.90;1.20;;;12.80;74.90;;;;;;4174830;28;20099;-77
2022/05/29 08:03:56;;;;;;;3.63;1.02;;;12.60;76.20;;;;;;4176499;28;20057;-77
2022/05/29 08:05:58;;;;;;;5.55;1.25;;;12.60;76.00;;;;;;4172800;28;20058;-75
2022/05/29 08:08:03;;;;;;;4.35;1.10;;;12.50;75.80;;;;;;4177842;28;20064;-76
2022/05/29 08:10:06;;;;;;;7.90;1.67;;;12.30;78.10;;;;;;4177009;28;20093;-77
2022/05/29 08:12:08;;;;;;;2.70;1.42;;;12.30;79.20;;;;;;4174298;28;20076;-75
2022/05/29 08:14:09;;;;;;;3.65;1.52;;;12.20;79.90;;;;;;4168857;28;20062;-73
2022/05/29 08:16:17;;;;;;;2.05;1.27;;;11.90;81.20;;;;;;4177011;28;20057;-75
2022/05/29 08:18:19;;;;;;;3.80;1.50;;;11.80;82.40;;;;;;4172922;28;20061;-75
2022/05/29 08:20:20;;;;;;;3.25;1.30;;;11.90;81.50;;;;;;4174832;28;20064;-74
2022/05/29 08:22:22;;;;;;;3.10;0.90;;;12.00;81.70;;;;;;4175082;28;20907;-75
2022/05/29 08:31:47;;;;;;;1.77;1.10;;;12.40;82.30;;;;;;4178402;28;20058;-76
2022/05/29 08:33:49;;;;;;;4.55;1.38;;;12.20;81.20;;;;;;4177266;28;20754;-76
2022/05/29 08:35:59;;;;;;;5.47;1.85;;;11.50;84.30;;;;;;4170271;28;20049;-73
2022/05/29 08:38:02;;;;;;;3.30;1.30;;;11.40;85.80;;;;;;4175572;28;20053;-74
2022/05/29 08:40:04;;;;;;;5.85;1.55;;;11.10;86.80;;;;;;4169980;28;21142;-75
2022/05/29 08:42:06;;;;;;;2.92;1.88;;;11.00;87.40;;;;;;4179774;28;20203;-75
2022/05/29 08:44:20;;;;;;;4.90;1.88;;;10.90;88.60;;;;;;4175907;28;20685;-76
2022/05/29 08:46:28;;;;;;;4.63;1.45;;;10.80;88.70;;;;;;4178702;28;20069;-76
2022/05/29 08:48:30;;;;;;;3.42;1.80;;;10.90;89.50;;;;;;4177315;28;20883;-75
2022/05/29 08:50:47;;;;;;;4.05;1.60;;;10.70;89.40;;;;;;4173404;28;20062;-74
2022/05/29 08:53:01;;;;;;;7.50;1.95;;;10.60;89.60;;;;;;4172719;28;20065;-76
2022/05/29 08:55:06;;;;;;;3.80;1.45;;;10.50;90.60;;;;;;4180694;28;20053;-74
2022/05/29 08:57:19;;;;;;;4.22;1.48;;;10.50;90.50;;;;;;4176236;28;20085;-76
2022/05/29 08:59:47;;;;;;;4.63;1.77;;;10.40;90.50;;;;;;4174799;28;20061;-76
2022/05/29 09:02:21;;;;;;;7.10;2.13;;;10.50;91.20;;;;;;4174806;28;20068;-76
2022/05/29 09:04:34;;;;;;;13.57;1.80;;;10.60;91.10;;;;;;4173261;28;20058;-75
2022/05/29 09:06:43;;;;;;;5.32;2.30;;;10.50;92.40;;;;;;4174153;28;20072;-74
2022/05/29 09:09:33;;;;;;;5.05;1.60;;;10.50;93.60;;;;;;4171380;28;20631;-74
2022/05/29 09:11:57;;;;;;;2.63;1.53;;;10.30;93.70;;;;;;4158216;28;20111;-76
2022/05/29 09:14:23;;;;;;;3.67;1.70;;;10.20;94.90;;;;;;4178501;28;20058;-77
2022/05/29 09:16:30;;;;;;;6.53;2.45;;;10.10;95.70;;;;;;4180534;28;20057;-78
2022/05/29 09:18:38;;;;;;;4.57;2.00;;;10.20;95.40;;;;;;4184229;28;20642;-77
2022/05/29 09:21:17;;;;;;;7.55;2.20;;;10.20;95.20;;;;;;4178358;28;20874;-76
2022/05/29 09:23:29;;;;;;;4.97;2.10;;;10.00;94.90;;;;;;4177965;28;20061;-78
2022/05/29 09:25:38;;;;;;;3.08;1.50;;;10.20;95.10;;;;;;4175519;28;20096;-79
2022/05/29 09:27:47;;;;;;;5.88;1.48;;;10.40;93.90;;;;;;4180072;28;20180;-78
2022/05/29 09:29:52;;;;;;;2.20;1.20;;;10.70;91.60;;;;;;4180595;28;20878;-76
2022/05/29 09:31:54;;;;;;;1.98;1.13;;;10.80;90.10;;;;;;4168312;28;20077;-79
2022/05/29 09:33:55;;;;;;;1.52;1.02;;;10.80;89.60;;;;;;4170901;28;20057;-78
2022/05/29 09:36:32;;;;;;;3.50;1.23;;;11.20;90.70;;;;;;4178642;28;20791;-75
2022/05/29 09:38:40;;;;;;;2.85;1.02;;;11.80;87.00;;;;;;4176599;28;20100;-74
2022/05/29 09:40:55;;;;;;;2.92;1.30;;;12.30;82.90;;;;;;4172335;28;20101;-76
2022/05/29 09:43:11;;;;;;;3.25;1.00;;;12.50;80.40;;;;;;4172529;28;20654;-77
2022/05/29 09:45:32;;;;;;;3.92;2.53;;;12.60;80.20;;;;;;4166293;28;20050;-77
2022/05/29 09:50:13;;;;;;;3.60;1.00;;;13.00;78.40;;;;;;4175844;28;20057;-76
2022/05/29 09:52:30;;;;;;;4.38;0.82;;;13.30;73.20;;;;;;4177627;28;20876;-76
2022/05/29 09:54:36;;;;;;;2.60;0.75;;;13.20;73.20;;;;;;4170666;28;20884;-76
2022/05/29 09:56:38;;;;;;;2.08;0.75;;;13.40;69.90;;;;;;4168004;28;20045;-76
2022/05/29 09:58:57;;;;;;;3.33;0.80;;;13.30;70.90;;;;;;4176209;28;20835;-76
2022/05/29 10:01:05;;;;;;;5.82;1.00;;;13.20;70.90;;;;;;4177216;28;20783;-76
2022/05/29 10:03:10;;;;;;;4.70;1.20;;;13.10;72.10;;;;;;4174479;28;20100;-76
2022/05/29 10:05:28;;;;;;;2.42;1.33;;;13.10;71.20;;;;;;4180617;28;20092;-77
2022/05/29 10:07:30;;;;;;;2.55;0.65;;;13.10;72.40;;;;;;4172354;28;20065;-76
2022/05/29 10:10:13;;;;;;;2.60;0.65;;;13.30;69.40;;;;;;4189387;28;20079;-76
2022/05/29 10:12:17;;;;;;;1.08;0.65;;;13.20;67.60;;;;;;4176353;28;20085;-77
2022/05/29 10:14:36;;;;;;;1.48;0.80;;;13.40;69.10;;;;;;4175879;28;20057;-76
2022/05/29 10:16:39;;;;;;;4.35;0.93;;;13.20;68.80;;;;;;4172297;28;20061;-80
2022/05/29 10:18:42;;;;;;;1.75;0.95;;;13.20;70.40;;;;;;4170786;28;20054;-77
2022/05/29 10:20:45;;;;;;;2.65;1.33;;;13.10;71.60;;;;;;4171980;28;20065;-77
2022/05/29 10:22:46;;;;;;;4.30;1.00;;;13.10;73.30;;;;;;4170787;28;20196;-77
2022/05/29 10:24:48;;;;;;;4.35;1.10;;;13.10;75.00;;;;;;4173175;28;20062;-77
2022/05/29 10:26:54;;;;;;;2.33;1.20;;;12.90;76.60;;;;;;4173964;28;20061;-77
2022/05/29 10:28:57;;;;;;;3.28;1.38;;;13.00;78.00;;;;;;4169485;28;20085;-77
2022/05/29 10:31:07;;;;;;;3.13;1.20;;;13.00;79.60;;;;;;4171867;28;20061;-77
2022/05/29 10:33:13;;;;;;;1.67;1.05;;;12.90;80.10;;;;;;4169165;28;20058;-76
2022/05/29 10:35:34;;;;;;;5.35;1.42;;;12.80;80.80;;;;;;4173091;28;20061;-77
2022/05/29 10:37:38;;;;;;;;;;;12.70;81.40;;;;;;4172765;28;20815;-77
2022/05/29 10:39:40;;;;;;;1.90;1.17;;;12.40;82.10;;;;;;4168210;28;19981;-76
2022/05/29 10:41:43;;;;;;;3.35;1.75;;;12.30;85.60;;;;;;4170181;28;20183;-77
2022/05/29 10:43:47;;;;;;;2.25;1.35;;;12.10;85.20;;;;;;4168916;28;20092;-76
2022/05/29 10:45:48;;;;;;;2.55;1.02;;;12.00;85.40;;;;;;4171318;28;20061;-78
2022/05/29 10:48:11;;;;;;;1.38;1.15;;;11.90;84.70;;;;;;4172243;28;20061;-77
2022/05/29 10:50:20;;;;;;;1.75;1.00;;;11.70;86.00;;;;;;4166275;28;20162;-77
2022/05/29 10:53:09;;;;;;;2.03;1.08;;;11.70;87.40;;;;;;4168416;28;20830;-78
2022/05/29 10:55:30;;;;;;;1.25;1.00;;;11.70;88.70;;;;;;4158546;28;20058;-75
2022/05/29 10:58:04;;;;;;;3.40;1.48;;;11.70;88.50;;;;;;4177089;28;20594;-75
2022/05/29 11:00:40;;;;;;;1.58;0.85;;;11.90;87.60;;;;;;4168837;28;20797;-75
2022/05/29 11:05:58;;;;;;;0.73;0.70;;;12.00;86.70;;;;;;4164872;28;20808;-75
2022/05/29 11:08:14;;;;;;;1.20;0.60;;;12.30;85.00;;;;;;4167770;28;20058;-75
2022/05/29 11:11:10;;;;;;;1.25;1.00;;;12.30;84.20;;;;;;4166415;28;20076;-75
2022/05/29 11:13:25;;;;;;;1.55;0.60;;;12.30;84.80;;;;;;4129670;28;20690;-76
2022/05/29 11:15:56;;;;;;;0.75;0.57;;;12.30;83.30;;;;;;4161843;28;20054;-74
2022/05/29 11:18:31;;;;;;;1.50;0.75;;;12.40;82.80;;;;;;4171851;28;20093;-75
2022/05/29 11:20:55;;;;;;;2.25;0.70;;;12.80;81.50;;;;;;4170028;28;20061;-75
2022/05/29 11:23:21;;;;;;;2.05;0.93;;;13.00;81.50;;;;;;4168028;28;20058;-74
2022/05/29 11:25:45;;;;;;;2.55;0.57;;;12.80;77.00;;;;;;4173333;28;20064;-74
2022/05/29 11:28:13;;;;;;;1.60;0.60;;;13.00;77.90;;;;;;4167813;28;20062;-76
2022/05/29 11:30:21;;;;;;;0.65;0.40;;;13.10;75.00;;;;;;4169861;28;20058;-75
2022/05/29 11:32:41;;;;;;;2.67;0.60;;;12.80;77.20;;;;;;4168940;28;20978;-75
2022/05/29 11:35:08;;;;;;;1.55;0.43;;;13.00;77.60;;;;;;4172990;28;20059;-75
2022/05/29 11:37:50;;;;;;;5.30;0.60;;;13.40;77.20;;;;;;4172119;28;21403;-75
2022/05/29 11:39:52;;;;;;;1.90;0.70;;;13.60;75.70;;;;;;4125263;28;20054;-75